Time;durP1;ratioP1;P1;durP2;ratioP2;P2;SDS_P1;SDS_P2;PMS_P1;PMS_P2;Temp;Humidity;BMP_temperature;BMP_pressure;BME280_temperature;BME280_humidity;BME280_pressure;Samples;Min_cycle;Max_cycle;Signal;HPM_P1;HPM_P2
2022/06/02 00:00:51;;;;;;;;;2.00;2.00;;;;;;;;4980583;28;10086;-76
2022/06/02 00:03:26;;;;;;;;;4.00;2.25;;;;;;;;4986118;28;10187;-77
2022/06/02 00:06:04;;;;;;;;;4.00;3.00;;;;;;;;4983395;28;10392;-77
2022/06/02 00:08:43;;;;;;;;;3.75;3.75;;;;;;;;4985192;28;10438;-77
2022/06/02 00:11:21;;;;;;;;;5.00;3.00;;;;;;;;4982671;28;10489;-76
2022/06/02 00:14:00;;;;;;;;;2.25;2.25;;;;;;;;4993492;28;10546;-77
2022/06/02 00:16:34;;;;;;;;;4.00;3.50;;;;;;;;4988641;28;10542;-77
2022/06/02 00:19:06;;;;;;;;;2.25;2.25;;;;;;;;4985912;28;10663;-77
2022/06/02 00:21:37;;;;;;;;;6.00;3.25;;;;;;;;4985827;28;10773;-77
2022/06/02 00:24:11;;;;;;;;;5.00;5.00;;;;;;;;4985617;28;10789;-77
2022/06/02 00:26:45;;;;;;;;;7.00;6.00;;;;;;;;4988114;28;10818;-78
2022/06/02 00:29:31;;;;;;;;;3.00;3.00;;;;;;;;4987727;28;10843;-78
2022/06/02 00:32:03;;;;;;;;;3.25;3.25;;;;;;;;4986852;28;11434;-77
2022/06/02 00:34:37;;;;;;;;;3.00;2.50;;;;;;;;4983845;28;11075;-77
2022/06/02 00:37:16;;;;;;;;;6.00;4.00;;;;;;;;4967267;28;10572;-76
2022/06/02 00:39:44;;;;;;;;;6.00;6.00;;;;;;;;4980651;28;10529;-77
2022/06/02 00:42:40;;;;;;;;;3.00;3.00;;;;;;;;4982455;28;11214;-76
2022/06/02 00:45:12;;;;;;;;;4.00;4.00;;;;;;;;4986328;28;10235;-76
2022/06/02 00:47:54;;;;;;;;;6.00;6.00;;;;;;;;4985596;28;10263;-76
2022/06/02 00:50:45;;;;;;;;;7.00;7.00;;;;;;;;4982521;28;10407;-76
2022/06/02 00:53:17;;;;;;;;;5.00;5.00;;;;;;;;4980934;28;10351;-76
2022/06/02 00:58:57;;;;;;;;;7.25;5.25;;;;;;;;4983076;28;10216;-76
2022/06/02 01:01:29;;;;;;;;;5.00;5.00;;;;;;;;4977087;28;10187;-76
2022/06/02 01:03:58;;;;;;;;;8.50;6.00;;;;;;;;4979587;28;10287;-78
2022/06/02 01:06:42;;;;;;;;;7.50;6.00;;;;;;;;4986253;28;10270;-77
2022/06/02 01:09:38;;;;;;;;;6.00;6.00;;;;;;;;4972436;28;11147;-77
2022/06/02 01:12:16;;;;;;;;;6.75;6.50;;;;;;;;4981926;28;10193;-76
2022/06/02 01:14:54;;;;;;;;;5.75;5.75;;;;;;;;4981328;28;10375;-75
2022/06/02 01:17:28;;;;;;;;;7.75;5.75;;;;;;;;4981450;28;10390;-76
2022/06/02 01:20:18;;;;;;;;;6.00;3.25;;;;;;;;4983235;28;10154;-75
2022/06/02 01:23:21;;;;;;;;;3.50;3.50;;;;;;;;4978884;28;10112;-76
2022/06/02 01:26:20;;;;;;;;;4.00;4.00;;;;;;;;4980421;28;10896;-77
2022/06/02 01:29:01;;;;;;;;;4.25;4.25;;;;;;;;4983014;28;10236;-76
2022/06/02 01:31:42;;;;;;;;;4.00;4.00;;;;;;;;4980848;28;9983;-78
2022/06/02 01:34:22;;;;;;;;;5.50;4.00;;;;;;;;4961329;28;11051;-77
2022/06/02 01:37:01;;;;;;;;;5.50;5.50;;;;;;;;4978295;28;10254;-77
2022/06/02 01:39:43;;;;;;;;;6.00;6.00;;;;;;;;4987023;28;10841;-77
2022/06/02 01:42:17;;;;;;;;;7.50;7.50;;;;;;;;4989482;28;10199;-77
2022/06/02 01:44:52;;;;;;;;;8.00;8.00;;;;;;;;4980304;28;10108;-77
2022/06/02 01:47:25;;;;;;;;;9.50;7.25;;;;;;;;4983479;28;10994;-77
2022/06/02 01:50:12;;;;;;;;;3.75;3.75;;;;;;;;4982305;28;10420;-78
2022/06/02 01:53:00;;;;;;;;;7.75;6.00;;;;;;;;4984275;28;10078;-77
2022/06/02 01:55:52;;;;;;;;;7.00;7.00;;;;;;;;4979128;28;10124;-77
2022/06/02 01:58:32;;;;;;;;;7.75;6.00;;;;;;;;4980863;28;10265;-77
2022/06/02 02:01:06;;;;;;;;;7.75;6.00;;;;;;;;4978163;28;10344;-77
2022/06/02 02:03:44;;;;;;;;;5.25;5.25;;;;;;;;4983015;28;10229;-77
2022/06/02 02:06:18;;;;;;;;;7.25;7.25;;;;;;;;4981890;28;10242;-77
2022/06/02 02:09:07;;;;;;;;;9.25;8.00;;;;;;;;4978770;28;10219;-77
2022/06/02 02:11:52;;;;;;;;;9.00;7.00;;;;;;;;4976798;28;10194;-77
2022/06/02 02:14:37;;;;;;;;;8.00;6.50;;;;;;;;4962997;28;10965;-77
2022/06/02 02:17:11;;;;;;;;;7.00;7.00;;;;;;;;4978623;28;10197;-76
2022/06/02 02:19:51;;;;;;;;;8.00;8.00;;;;;;;;4976301;28;10200;-75
2022/06/02 02:22:28;;;;;;;;;10.75;10.75;;;;;;;;4984165;28;10288;-77
2022/06/02 02:25:06;;;;;;;;;10.00;8.25;;;;;;;;4981110;28;10547;-77
2022/06/02 02:30:28;;;;;;;;;10.00;9.00;;;;;;;;4980099;28;10392;-76
2022/06/02 02:32:59;;;;;;;;;7.25;7.00;;;;;;;;4984420;28;11081;-77
2022/06/02 02:35:39;;;;;;;;;8.00;8.00;;;;;;;;4978632;28;10285;-77
2022/06/02 02:38:12;;;;;;;;;9.00;9.00;;;;;;;;4980048;28;10333;-76
2022/06/02 02:40:44;;;;;;;;;7.00;7.00;;;;;;;;4980212;28;10423;-75
2022/06/02 02:43:18;;;;;;;;;7.75;7.25;;;;;;;;4979319;28;10314;-76
2022/06/02 02:45:52;;;;;;;;;9.00;7.25;;;;;;;;4979071;28;10972;-76
2022/06/02 02:48:30;;;;;;;;;4.00;4.00;;;;;;;;4981730;28;11062;-76
2022/06/02 02:51:07;;;;;;;;;9.00;7.00;;;;;;;;4976106;28;10250;-75
2022/06/02 02:53:38;;;;;;;;;5.00;5.00;;;;;;;;4980979;28;10252;-77
2022/06/02 02:56:14;;;;;;;;;8.75;8.75;;;;;;;;4975238;28;10387;-76
2022/06/02 02:58:45;;;;;;;;;4.00;4.00;;;;;;;;4980153;28;10455;-76
2022/06/02 03:01:16;;;;;;;;;0.75;0.75;;;;;;;;4983294;28;10362;-77
2022/06/02 03:03:46;;;;;;;;;8.25;8.25;;;;;;;;4985876;28;10328;-77
2022/06/02 03:06:21;;;;;;;;;7.00;7.00;;;;;;;;4984456;28;11308;-77
2022/06/02 03:08:55;;;;;;;;;7.00;7.00;;;;;;;;4979572;28;10702;-77
2022/06/02 03:11:44;;;;;;;;;6.25;6.25;;;;;;;;4984333;28;10742;-78
2022/06/02 03:14:20;;;;;;;;;6.00;6.00;;;;;;;;4986443;28;10618;-78
2022/06/02 03:16:58;;;;;;;;;6.50;6.50;;;;;;;;4981531;28;10776;-78
2022/06/02 03:19:35;;;;;;;;;15.50;15.50;;;;;;;;4963554;28;11000;-78
2022/06/02 03:22:12;;;;;;;;;18.00;18.00;;;;;;;;4991539;28;11605;-78
2022/06/02 03:24:47;;;;;;;;;16.25;13.25;;;;;;;;4981820;28;11502;-77
2022/06/02 03:27:39;;;;;;;;;7.00;7.00;;;;;;;;4984205;28;11505;-77
2022/06/02 03:30:22;;;;;;;;;4.50;4.50;;;;;;;;4981558;28;11467;-78
2022/06/02 03:33:05;;;;;;;;;4.00;4.00;;;;;;;;4983542;28;11904;-78
2022/06/02 03:35:40;;;;;;;;;6.50;6.50;;;;;;;;4984708;28;10927;-78
2022/06/02 03:38:17;;;;;;;;;5.00;4.00;;;;;;;;4983003;28;11178;-78
2022/06/02 03:41:00;;;;;;;;;6.00;6.00;;;;;;;;4980045;28;11787;-77
2022/06/02 03:43:32;;;;;;;;;4.50;4.50;;;;;;;;4984684;28;11394;-78
2022/06/02 03:46:12;;;;;;;;;4.00;4.00;;;;;;;;4986433;28;11468;-77
2022/06/02 03:49:08;;;;;;;;;5.00;5.00;;;;;;;;4987487;28;11533;-77
2022/06/02 03:51:42;;;;;;;;;6.50;6.50;;;;;;;;4974951;28;11549;-77
2022/06/02 03:54:37;;;;;;;;;5.00;5.00;;;;;;;;4985082;28;11476;-77
2022/06/02 03:57:22;;;;;;;;;9.00;7.00;;;;;;;;4981976;28;11414;-77
2022/06/02 04:00:13;;;;;;;;;4.00;4.00;;;;;;;;4981758;28;11507;-77
2022/06/02 04:02:44;;;;;;;;;7.00;7.00;;;;;;;;4978819;28;11252;-78
2022/06/02 04:05:32;;;;;;;;;7.00;7.00;;;;;;;;4982727;28;11480;-77
2022/06/02 04:08:08;;;;;;;;;6.00;6.00;;;;;;;;4987447;28;11447;-76
2022/06/02 04:10:43;;;;;;;;;4.50;4.50;;;;;;;;4984445;28;11465;-78
2022/06/02 04:13:37;;;;;;;;;9.00;7.00;;;;;;;;4977026;28;11485;-77
2022/06/02 04:16:27;;;;;;;;;6.00;6.00;;;;;;;;4984774;28;11426;-78
2022/06/02 04:20:34;;;;;;;;;7.00;7.00;;;;;;;;4992410;28;11463;-77
2022/06/02 04:21:59;;;;;;;;;7.00;7.00;;;;;;;;4964934;28;11440;-77
2022/06/02 04:24:33;;;;;;;;;5.50;5.50;;;;;;;;4983504;28;11470;-78
2022/06/02 04:27:17;;;;;;;;;6.50;6.25;;;;;;;;4977884;28;11571;-78
2022/06/02 04:30:02;;;;;;;;;8.00;7.00;;;;;;;;4980249;28;11426;-78
2022/06/02 04:32:40;;;;;;;;;6.00;6.00;;;;;;;;4977923;28;11431;-76
2022/06/02 04:35:16;;;;;;;;;6.25;6.25;;;;;;;;4981160;28;12258;-77
2022/06/02 04:37:49;;;;;;;;;6.75;6.75;;;;;;;;4981274;28;11568;-78
2022/06/02 04:40:29;;;;;;;;;7.00;7.00;;;;;;;;4978329;28;11416;-80
2022/06/02 04:43:04;;;;;;;;;6.00;6.00;;;;;;;;4977822;28;11437;-80
2022/06/02 04:45:39;;;;;;;;;7.00;7.00;;;;;;;;4978925;28;11416;-79
2022/06/02 04:48:14;;;;;;;;;7.00;6.00;;;;;;;;4976708;28;12236;-84
2022/06/02 04:50:45;;;;;;;;;7.00;7.00;;;;;;;;4964739;28;11549;-86
2022/06/02 04:53:22;;;;;;;;;8.25;7.00;;;;;;;;4993395;28;12341;-85
2022/06/02 04:56:02;;;;;;;;;5.50;5.50;;;;;;;;4981132;28;11453;-85
2022/06/02 04:58:39;;;;;;;;;7.00;7.00;;;;;;;;4983014;28;11537;-85
2022/06/02 05:01:14;;;;;;;;;8.25;8.25;;;;;;;;4980462;28;11380;-84
2022/06/02 05:03:47;;;;;;;;;9.50;9.50;;;;;;;;4979892;28;11413;-83
2022/06/02 05:06:24;;;;;;;;;9.50;9.50;;;;;;;;4979568;28;11508;-79
2022/06/02 05:09:01;;;;;;;;;11.00;11.00;;;;;;;;4980049;28;11422;-80
2022/06/02 05:11:41;;;;;;;;;10.25;8.00;;;;;;;;4981314;28;11562;-82
2022/06/02 05:14:18;;;;;;;;;9.00;8.00;;;;;;;;4970834;28;11733;-79
2022/06/02 05:16:52;;;;;;;;;9.75;8.75;;;;;;;;4986524;28;11215;-79
2022/06/02 05:19:36;;;;;;;;;7.75;7.75;;;;;;;;4980337;28;10997;-80
2022/06/02 05:22:38;;;;;;;;;10.25;9.00;;;;;;;;4983623;28;10927;-79
2022/06/02 05:25:20;;;;;;;;;7.25;7.25;;;;;;;;4982574;28;11002;-79
2022/06/02 05:28:07;;;;;;;;;11.50;11.50;;;;;;;;4986910;28;10586;-75
2022/06/02 05:30:49;;;;;;;;;8.25;8.25;;;;;;;;4974992;28;10756;-80
2022/06/02 05:33:51;;;;;;;;;7.75;7.75;;;;;;;;4984473;28;10656;-77
2022/06/02 05:36:30;;;;;;;;;8.75;8.75;;;;;;;;4975363;28;10674;-79
2022/06/02 05:39:07;;;;;;;;;6.50;6.50;;;;;;;;4984822;28;10628;-78
2022/06/02 05:41:46;;;;;;;;;6.75;6.75;;;;;;;;4981804;28;10497;-79
2022/06/02 05:44:21;;;;;;;;;8.75;8.25;;;;;;;;4979969;28;10473;-79
2022/06/02 05:47:20;;;;;;;;;10.50;8.75;;;;;;;;4982111;28;10433;-79
2022/06/02 05:49:53;;;;;;;;;9.75;7.00;;;;;;;;4979555;28;10257;-84
2022/06/02 05:52:32;;;;;;;;;6.75;5.50;;;;;;;;4983296;28;10243;-79
2022/06/02 05:55:18;;;;;;;;;7.00;7.00;;;;;;;;4979707;28;10064;-80
2022/06/02 05:57:55;;;;;;;;;9.00;7.25;;;;;;;;4980245;28;10044;-80
2022/06/02 06:00:32;;;;;;;;;8.25;6.00;;;;;;;;4977687;28;10895;-81
2022/06/02 06:03:23;;;;;;;;;7.50;5.00;;;;;;;;4962802;28;9973;-79
2022/06/02 06:05:54;;;;;;;;;8.00;8.00;;;;;;;;4968141;28;9767;-80
2022/06/02 06:08:43;;;;;;;;;7.25;7.25;;;;;;;;4988705;28;10580;-76
2022/06/02 06:11:21;;;;;;;;;7.00;7.00;;;;;;;;4978689;28;9858;-72
2022/06/02 06:14:14;;;;;;;;;6.00;6.00;;;;;;;;4979166;28;9782;-71
2022/06/02 06:16:45;;;;;;;;;5.50;5.50;;;;;;;;4980559;28;10430;-74
2022/06/02 06:19:24;;;;;;;;;9.00;9.00;;;;;;;;4988413;28;9732;-74
2022/06/02 06:22:04;;;;;;;;;4.50;4.50;;;;;;;;4986619;28;9812;-75
2022/06/02 06:25:06;;;;;;;;;7.00;7.00;;;;;;;;4994147;28;9642;-74
2022/06/02 06:27:38;;;;;;;;;9.00;7.00;;;;;;;;4978783;28;9755;-73
2022/06/02 06:30:13;;;;;;;;;2.50;1.75;;;;;;;;4984418;28;9849;-76
2022/06/02 06:32:52;;;;;;;;;5.00;5.00;;;;;;;;4985936;28;9643;-73
2022/06/02 06:35:31;;;;;;;;;6.50;5.00;;;;;;;;4981529;28;9485;-71
2022/06/02 06:38:12;;;;;;;;;5.50;5.50;;;;;;;;4982980;28;9670;-72
2022/06/02 06:40:50;;;;;;;;;6.00;6.00;;;;;;;;4963620;28;9705;-72
2022/06/02 06:43:32;;;;;;;;;8.50;7.00;;;;;;;;4986303;28;9511;-69
2022/06/02 06:46:07;;;;;;;;;8.75;6.50;;;;;;;;4979899;28;9556;-71
2022/06/02 06:48:37;;;;;;;;;8.25;8.00;;;;;;;;4981042;28;9627;-71
2022/06/02 06:51:18;;;;;;;;;5.00;5.00;;;;;;;;4982124;28;9500;-71
2022/06/02 06:53:55;;;;;;;;;5.00;5.00;;;;;;;;4979904;28;9332;-72
2022/06/02 06:56:25;;;;;;;;;7.00;7.00;;;;;;;;4984220;28;9347;-71
2022/06/02 06:59:08;;;;;;;;;7.25;7.25;;;;;;;;4971590;28;10182;-71
2022/06/02 07:01:42;;;;;;;;;5.00;5.00;;;;;;;;4975477;28;9476;-73
2022/06/02 07:04:18;;;;;;;;;7.00;7.00;;;;;;;;4981963;28;9335;-72
2022/06/02 07:06:53;;;;;;;;;6.33;6.33;;;;;;;;4977177;28;9174;-72
2022/06/02 07:09:28;;;;;;;;;8.33;4.33;;;;;;;;4978521;28;9244;-73
2022/06/02 07:14:53;;;;;;;;;5.67;5.67;;;;;;;;4953442;28;9219;-72
2022/06/02 07:17:27;;;;;;;;;8.00;8.00;;;;;;;;4979641;28;9108;-71
2022/06/02 07:20:04;;;;;;;;;5.67;5.67;;;;;;;;4977301;28;8964;-72
2022/06/02 07:22:38;;;;;;;;;5.00;5.00;;;;;;;;4978037;28;9070;-74
2022/06/02 07:25:15;;;;;;;;;5.00;5.00;;;;;;;;4978827;28;8875;-72
2022/06/02 07:27:47;;;;;;;;;7.75;5.00;;;;;;;;4981551;28;8864;-72
2022/06/02 07:30:24;;;;;;;;;7.25;5.25;;;;;;;;4984904;28;8848;-75
2022/06/02 07:33:32;;;;;;;;;5.50;5.50;;;;;;;;4975146;28;9655;-73
2022/06/02 07:36:22;;;;;;;;;5.25;3.00;;;;;;;;4961563;28;8890;-76
2022/06/02 07:39:27;;;;;;;;;6.50;6.50;;;;;;;;4984985;28;8864;-72
2022/06/02 07:42:07;;;;;;;;;5.25;5.25;;;;;;;;4980355;28;9001;-73
2022/06/02 07:45:05;;;;;;;;;4.25;4.25;;;;;;;;4984903;28;8920;-73
2022/06/02 07:47:42;;;;;;;;;6.75;5.50;;;;;;;;4984485;28;8870;-73
2022/06/02 07:50:14;;;;;;;;;9.50;9.50;;;;;;;;4991257;28;8929;-73
2022/06/02 07:52:52;;;;;;;;;7.50;7.50;;;;;;;;4985663;28;8894;-73
2022/06/02 07:55:30;;;;;;;;;5.00;5.00;;;;;;;;4968619;28;8891;-74
2022/06/02 07:58:07;;;;;;;;;5.00;5.00;;;;;;;;4986960;28;8894;-70
2022/06/02 08:00:42;;;;;;;;;6.75;6.00;;;;;;;;4991156;28;9638;-72
2022/06/02 08:03:47;;;;;;;;;5.50;5.50;;;;;;;;4989273;28;8866;-72
2022/06/02 08:06:21;;;;;;;;;8.00;6.25;;;;;;;;4960584;28;9609;-71
2022/06/02 08:08:58;;;;;;;;;5.50;4.75;;;;;;;;4982198;28;8890;-72
2022/06/02 08:11:38;;;;;;;;;7.50;6.00;;;;;;;;4985688;28;8875;-71
2022/06/02 08:14:12;;;;;;;;;6.25;4.50;;;;;;;;4988688;28;8972;-72
2022/06/02 08:16:52;;;;;;;;;7.50;6.50;;;;;;;;4981433;28;8884;-73
2022/06/02 08:19:34;;;;;;;;;3.50;3.50;;;;;;;;4987223;28;8899;-71
2022/06/02 08:22:04;;;;;;;;;6.00;4.75;;;;;;;;4983806;28;8870;-70
2022/06/02 08:24:38;;;;;;;;;6.50;6.50;;;;;;;;4985979;28;8863;-72
2022/06/02 08:27:23;;;;;;;;;6.25;6.00;;;;;;;;4986242;28;8866;-72
2022/06/02 08:30:03;;;;;;;;;4.00;4.00;;;;;;;;4988273;28;8934;-74
2022/06/02 08:32:42;;;;;;;;;5.50;5.00;;;;;;;;4992655;28;8906;-75
2022/06/02 08:35:18;;;;;;;;;6.00;6.00;;;;;;;;4981384;28;8874;-74
2022/06/02 08:37:56;;;;;;;;;8.50;6.50;;;;;;;;4982033;28;8902;-74
2022/06/02 08:40:48;;;;;;;;;4.50;4.50;;;;;;;;4983756;28;8848;-73
2022/06/02 08:43:47;;;;;;;;;3.25;3.25;;;;;;;;4976807;28;8869;-74
2022/06/02 08:46:45;;;;;;;;;4.00;4.00;;;;;;;;4983245;28;8858;-74
2022/06/02 08:49:41;;;;;;;;;2.50;2.00;;;;;;;;4941519;28;8866;-74
2022/06/02 08:52:43;;;;;;;;;4.00;3.00;;;;;;;;4980708;28;8965;-76
2022/06/02 08:55:43;;;;;;;;;4.00;4.00;;;;;;;;4934591;28;8902;-75
2022/06/02 08:58:58;;;;;;;;;5.00;4.40;;;;;;;;4948818;28;8854;-77
2022/06/02 09:01:39;;;;;;;;;2.40;2.40;;;;;;;;4976081;28;8806;-78
2022/06/02 09:04:48;;;;;;;;;4.40;3.60;;;;;;;;4964643;28;8987;-78
2022/06/02 09:08:02;;;;;;;;;4.20;4.00;;;;;;;;4983561;28;8977;-75
2022/06/02 09:10:58;;;;;;;;;3.00;3.00;;;;;;;;4944791;28;8876;-72
2022/06/02 09:13:48;;;;;;;;;3.60;3.60;;;;;;;;4982492;28;8961;-75
2022/06/02 09:16:23;;;;;;;;;2.40;2.40;;;;;;;;4986477;28;8866;-75
2022/06/02 09:19:06;;;;;;;;;2.80;2.80;;;;;;;;4988417;28;8868;-74
2022/06/02 09:21:40;;;;;;;;;2.40;2.40;;;;;;;;4972460;28;8861;-73
2022/06/02 09:24:17;;;;;;;;;4.60;3.00;;;;;;;;4993495;28;8886;-73
2022/06/02 09:27:20;;;;;;;;;3.20;2.00;;;;;;;;4982189;28;8886;-75
2022/06/02 09:29:50;;;;;;;;;3.00;3.00;;;;;;;;4984617;28;8890;-75
2022/06/02 09:32:37;;;;;;;;;2.00;2.00;;;;;;;;4989552;28;8809;-73
2022/06/02 09:35:13;;;;;;;;;2.60;2.60;;;;;;;;4996187;28;9696;-74
2022/06/02 09:38:15;;;;;;;;;3.40;2.40;;;;;;;;4985718;28;9779;-73
2022/06/02 09:40:50;;;;;;;;;2.00;2.00;;;;;;;;4987805;28;8988;-75
2022/06/02 09:43:37;;;;;;;;;2.00;2.00;;;;;;;;4989488;28;8876;-72
2022/06/02 09:46:31;;;;;;;;;2.00;2.00;;;;;;;;4987445;28;8889;-74
2022/06/02 09:49:13;;;;;;;;;3.00;3.00;;;;;;;;4975132;28;8910;-75
2022/06/02 09:51:48;;;;;;;;;1.40;1.40;;;;;;;;4963345;28;8879;-74
2022/06/02 09:54:32;;;;;;;;;1.60;1.60;;;;;;;;4986836;28;8878;-74
2022/06/02 10:00:13;;;;;;;;;0.80;0.80;;;;;;;;4994326;28;8983;-74
2022/06/02 10:02:48;;;;;;;;;2.80;2.80;;;;;;;;4983006;28;8882;-74
2022/06/02 10:05:27;;;;;;;;;1.60;1.60;;;;;;;;4986390;28;8878;-72
2022/06/02 10:08:12;;;;;;;;;0.80;0.80;;;;;;;;4981538;28;8999;-72
2022/06/02 10:10:56;;;;;;;;;2.60;1.60;;;;;;;;4978815;28;8886;-75
2022/06/02 10:13:35;;;;;;;;;1.60;0.80;;;;;;;;4983765;28;8875;-77
2022/06/02 10:16:49;;;;;;;;;3.20;1.80;;;;;;;;4982464;28;8871;-75
2022/06/02 10:19:47;;;;;;;;;2.20;1.80;;;;;;;;4978529;28;9998;-75
2022/06/02 10:22:20;;;;;;;;;2.00;2.00;;;;;;;;4982830;28;8865;-76
2022/06/02 10:25:27;;;;;;;;;1.00;1.00;;;;;;;;4980760;28;8850;-76
2022/06/02 10:28:16;;;;;;;;;1.80;1.80;;;;;;;;4979154;28;9088;-75
2022/06/02 10:31:16;;;;;;;;;1.00;1.00;;;;;;;;4980120;28;8818;-77
2022/06/02 10:34:16;;;;;;;;;1.20;1.20;;;;;;;;4952485;28;8865;-76
2022/06/02 10:37:16;;;;;;;;;1.20;1.20;;;;;;;;4984756;28;9820;-76
2022/06/02 10:40:40;;;;;;;;;1.60;1.60;;;;;;;;4979182;28;8890;-76
2022/06/02 10:43:30;;;;;;;;;1.00;1.00;;;;;;;;4983070;28;8866;-77
2022/06/02 10:46:28;;;;;;;;;2.00;2.00;;;;;;;;4982990;28;9662;-75
2022/06/02 10:49:25;;;;;;;;;2.00;2.00;;;;;;;;4966917;28;8883;-76
2022/06/02 10:52:31;;;;;;;;;2.60;2.60;;;;;;;;4981778;28;9586;-75
2022/06/02 10:55:34;;;;;;;;;0.80;0.80;;;;;;;;4992653;28;8865;-75
2022/06/02 10:58:24;;;;;;;;;1.80;1.80;;;;;;;;4979303;28;8850;-75
2022/06/02 11:01:25;;;;;;;;;2.80;1.80;;;;;;;;4988575;28;8960;-76
2022/06/02 11:04:22;;;;;;;;;1.60;1.60;;;;;;;;4981276;28;8867;-73
2022/06/02 11:07:28;;;;;;;;;1.40;1.40;;;;;;;;4983850;28;8901;-73
2022/06/02 11:10:22;;;;;;;;;3.80;2.00;;;;;;;;4930192;28;8884;-71
2022/06/02 11:13:18;;;;;;;;;3.00;1.80;;;;;;;;4984823;28;8854;-76
2022/06/02 11:16:16;;;;;;;;;1.40;1.40;;;;;;;;4982450;28;8866;-74
2022/06/02 11:19:25;;;;;;;;;1.60;1.60;;;;;;;;4975345;28;8893;-74
2022/06/02 11:22:35;;;;;;;;;2.20;2.20;;;;;;;;4941678;28;8874;-74
2022/06/02 11:25:46;;;;;;;;;1.20;1.20;;;;;;;;4989463;28;8879;-75
2022/06/02 11:28:49;;;;;;;;;2.20;2.00;;;;;;;;4986871;28;8885;-74
2022/06/02 11:31:39;;;;;;;;;2.80;0.80;;;;;;;;4983331;28;8820;-74
2022/06/02 11:34:28;;;;;;;;;1.80;1.80;;;;;;;;4988328;28;8872;-74
2022/06/02 11:37:31;;;;;;;;;2.60;2.60;;;;;;;;4974714;28;8886;-74
2022/06/02 11:40:37;;;;;;;;;1.80;1.80;;;;;;;;4975499;28;8882;-74
2022/06/02 11:43:24;;;;;;;;;2.00;2.00;;;;;;;;4962891;28;8920;-74
2022/06/02 11:46:20;;;;;;;;;1.40;1.20;;;;;;;;4981296;28;8871;-74
2022/06/02 11:49:23;;;;;;;;;2.60;2.60;;;;;;;;4983957;28;8989;-74
2022/06/02 11:52:17;;;;;;;;;1.80;1.80;;;;;;;;4977619;28;8838;-74
2022/06/02 11:55:25;;;;;;;;;0.40;0.40;;;;;;;;4985311;28;8874;-73
2022/06/02 11:58:14;;;;;;;;;0.00;0.00;;;;;;;;4982523;28;8862;-72
2022/06/02 12:00:59;;;;;;;;;0.80;0.80;;;;;;;;4957938;28;8807;-73
2022/06/02 12:03:59;;;;;;;;;0.80;0.80;;;;;;;;4981947;28;8895;-73
2022/06/02 12:06:46;;;;;;;;;1.80;1.80;;;;;;;;4985137;28;9027;-73
2022/06/02 12:09:33;;;;;;;;;0.40;0.00;;;;;;;;4988015;28;8960;-73
2022/06/02 12:12:11;;;;;;;;;1.00;1.00;;;;;;;;4981596;28;8996;-73
2022/06/02 12:15:21;;;;;;;;;1.00;1.00;;;;;;;;4990591;28;8906;-73
2022/06/02 12:18:11;;;;;;;;;0.20;0.20;;;;;;;;4979857;28;8916;-76
2022/06/02 12:21:04;;;;;;;;;0.20;0.20;;;;;;;;4982108;28;8933;-71
2022/06/02 12:23:47;;;;;;;;;1.60;1.60;;;;;;;;4986836;28;8864;-72
2022/06/02 12:26:23;;;;;;;;;0.00;0.00;;;;;;;;4989927;28;8897;-74
2022/06/02 12:28:58;;;;;;;;;0.00;0.00;;;;;;;;4991957;28;8858;-75
2022/06/02 12:32:06;;;;;;;;;0.00;0.00;;;;;;;;4984398;28;8812;-73
2022/06/02 12:35:31;;;;;;;;;1.00;1.00;;;;;;;;4991055;28;8846;-74
2022/06/02 12:38:17;;;;;;;;;1.00;1.00;;;;;;;;4902314;29;8916;-74
2022/06/02 12:41:04;;;;;;;;;1.00;1.00;;;;;;;;4963007;28;8948;-74
2022/06/02 12:43:56;;;;;;;;;0.00;0.00;;;;;;;;4985078;28;8957;-74
2022/06/02 12:46:45;;;;;;;;;0.40;0.40;;;;;;;;4983063;28;8928;-74
2022/06/02 12:49:41;;;;;;;;;0.00;0.00;;;;;;;;4986943;28;8872;-74
2022/06/02 12:52:30;;;;;;;;;0.80;0.80;;;;;;;;4984753;28;8848;-74
2022/06/02 12:55:31;;;;;;;;;0.00;0.00;;;;;;;;4982998;28;8896;-74
2022/06/02 12:58:43;;;;;;;;;0.00;0.00;;;;;;;;4953656;28;8878;-74
2022/06/02 13:01:21;;;;;;;;;0.20;0.20;;;;;;;;4992856;28;8809;-74
2022/06/02 13:04:35;;;;;;;;;1.00;1.00;;;;;;;;4984929;28;8856;-74
2022/06/02 13:07:49;;;;;;;;;0.00;0.00;;;;;;;;4963861;28;8889;-75
2022/06/02 13:10:37;;;;;;;;;0.00;0.00;;;;;;;;4977360;28;8932;-74
2022/06/02 13:13:33;;;;;;;;;0.00;0.00;;;;;;;;4987885;28;8844;-74
2022/06/02 13:16:21;;;;;;;;;0.00;0.00;;;;;;;;4968373;28;8922;-74
2022/06/02 13:19:19;;;;;;;;;0.00;0.00;;;;;;;;4977669;28;8912;-74
2022/06/02 13:22:24;;;;;;;;;0.00;0.00;;;;;;;;4989748;28;8924;-76
2022/06/02 13:25:16;;;;;;;;;0.40;0.40;;;;;;;;4980723;28;8877;-76
2022/06/02 13:28:13;;;;;;;;;0.80;0.80;;;;;;;;4987802;28;8873;-74
2022/06/02 13:31:10;;;;;;;;;0.00;0.00;;;;;;;;4984647;28;8914;-74
2022/06/02 13:34:19;;;;;;;;;0.00;0.00;;;;;;;;4955075;28;8905;-73
2022/06/02 13:37:00;;;;;;;;;0.00;0.00;;;;;;;;4959359;28;8883;-73
2022/06/02 13:39:47;;;;;;;;;0.00;0.00;;;;;;;;4988323;28;8871;-74
2022/06/02 13:42:58;;;;;;;;;0.00;0.00;;;;;;;;4991230;28;9658;-73
2022/06/02 13:46:16;;;;;;;;;0.00;0.00;;;;;;;;4975133;28;8879;-74
2022/06/02 13:49:20;;;;;;;;;0.00;0.00;;;;;;;;4892688;29;8878;-74
2022/06/02 13:52:08;;;;;;;;;0.00;0.00;;;;;;;;4919624;29;8892;-74
2022/06/02 13:58:01;;;;;;;;;0.00;0.00;;;;;;;;4992150;28;8860;-74
2022/06/02 14:00:45;;;;;;;;;0.00;0.00;;;;;;;;4996363;28;8780;-74
2022/06/02 14:04:03;;;;;;;;;0.80;0.80;;;;;;;;4987099;28;8920;-76
2022/06/02 14:06:31;;;;;;;;;0.40;0.40;;;;;;;;4937733;28;8866;-75
2022/06/02 14:09:33;;;;;;;;;1.00;1.00;;;;;;;;4982885;28;8867;-71
2022/06/02 14:12:25;;;;;;;;;0.20;0.20;;;;;;;;4974210;28;9013;-74
2022/06/02 14:15:09;;;;;;;;;0.80;0.80;;;;;;;;4987241;28;8883;-74
2022/06/02 14:17:56;;;;;;;;;2.20;1.00;;;;;;;;4985364;28;8893;-74
2022/06/02 14:20:33;;;;;;;;;0.00;0.00;;;;;;;;4986527;28;8863;-74
2022/06/02 14:23:20;;;;;;;;;1.00;0.20;;;;;;;;4982841;28;8843;-74
2022/06/02 14:25:57;;;;;;;;;0.40;0.40;;;;;;;;4981022;28;8888;-73
2022/06/02 14:28:39;;;;;;;;;1.00;1.00;;;;;;;;4966406;28;8866;-73
2022/06/02 14:31:15;;;;;;;;;0.60;0.60;;;;;;;;4981997;28;8873;-74
2022/06/02 14:33:45;;;;;;;;;0.00;0.00;;;;;;;;4988501;28;8867;-73
2022/06/02 14:36:21;;;;;;;;;3.20;1.20;;;;;;;;4987437;28;8870;-74
2022/06/02 14:39:06;;;;;;;;;2.20;1.80;;;;;;;;4994532;28;8960;-73
2022/06/02 14:41:41;;;;;;;;;0.00;0.00;;;;;;;;4985878;28;8867;-73
2022/06/02 14:44:26;;;;;;;;;1.20;1.20;;;;;;;;4990321;28;10414;-73
2022/06/02 14:47:13;;;;;;;;;0.60;0.60;;;;;;;;4986665;28;8876;-73
2022/06/02 14:50:04;;;;;;;;;0.60;0.60;;;;;;;;4982072;28;8867;-74
2022/06/02 14:52:54;;;;;;;;;1.00;1.00;;;;;;;;4974930;28;8902;-74
2022/06/02 14:55:27;;;;;;;;;1.00;1.00;;;;;;;;4986711;28;8851;-73
2022/06/02 14:58:03;;;;;;;;;0.80;0.80;;;;;;;;4987726;28;8886;-73
2022/06/02 15:00:37;;;;;;;;;1.40;1.40;;;;;;;;4976376;28;8933;-73
2022/06/02 15:03:40;;;;;;;;;1.40;0.80;;;;;;;;4983608;28;8855;-75
2022/06/02 15:06:25;;;;;;;;;0.20;0.20;;;;;;;;4980518;28;8894;-75
2022/06/02 15:09:15;;;;;;;;;1.00;1.00;;;;;;;;4981024;28;8882;-76
2022/06/02 15:11:59;;;;;;;;;0.80;0.80;;;;;;;;4983858;28;8888;-76
2022/06/02 15:14:39;;;;;;;;;4.60;4.60;;;;;;;;4981307;28;8886;-75
2022/06/02 15:17:28;;;;;;;;;1.20;1.20;;;;;;;;4985841;28;8875;-74
2022/06/02 15:20:31;;;;;;;;;1.00;1.00;;;;;;;;4978038;28;8855;-74
2022/06/02 15:23:28;;;;;;;;;6.00;6.00;;;;;;;;4985146;28;8878;-77
2022/06/02 15:26:07;;;;;;;;;2.80;1.40;;;;;;;;4986670;28;8901;-75
2022/06/02 15:29:03;;;;;;;;;0.00;0.00;;;;;;;;4984729;28;8838;-74
2022/06/02 15:31:34;;;;;;;;;0.00;0.00;;;;;;;;4982408;28;8822;-74
2022/06/02 15:34:34;;;;;;;;;0.00;0.00;;;;;;;;4986241;28;8882;-73
2022/06/02 15:37:41;;;;;;;;;0.80;0.80;;;;;;;;4968014;28;8893;-73
2022/06/02 15:40:45;;;;;;;;;0.20;0.20;;;;;;;;4984622;28;8898;-74
2022/06/02 15:43:32;;;;;;;;;1.20;1.20;;;;;;;;4984915;28;8855;-73
2022/06/02 15:46:33;;;;;;;;;0.80;0.80;;;;;;;;4983026;28;8862;-73
2022/06/02 15:49:21;;;;;;;;;0.00;0.00;;;;;;;;4965742;28;8891;-74
2022/06/02 15:52:05;;;;;;;;;0.00;0.00;;;;;;;;4951546;28;8970;-74
2022/06/02 15:55:09;;;;;;;;;0.80;0.80;;;;;;;;4981757;28;8842;-78
2022/06/02 15:58:24;;;;;;;;;1.80;1.80;;;;;;;;4984912;28;8865;-73
2022/06/02 16:01:18;;;;;;;;;1.00;1.00;;;;;;;;4990192;28;9621;-73
2022/06/02 16:04:22;;;;;;;;;1.60;1.60;;;;;;;;4989843;28;8866;-69
2022/06/02 16:07:27;;;;;;;;;1.00;1.00;;;;;;;;4983137;28;8874;-73
2022/06/02 16:13:49;;;;;;;;;1.00;1.00;;;;;;;;4989152;28;8850;-73
2022/06/02 16:16:50;;;;;;;;;1.00;1.00;;;;;;;;4989338;28;8936;-72
2022/06/02 16:19:43;;;;;;;;;0.00;0.00;;;;;;;;4984573;28;8875;-72
2022/06/02 16:22:30;;;;;;;;;1.00;1.00;;;;;;;;4985735;28;8889;-73
2022/06/02 16:25:35;;;;;;;;;1.00;0.80;;;;;;;;4954315;28;8823;-74
2022/06/02 16:28:46;;;;;;;;;0.00;0.00;;;;;;;;4983753;28;8878;-72
2022/06/02 16:31:23;;;;;;;;;1.20;1.20;;;;;;;;4990406;28;8813;-73
2022/06/02 16:33:58;;;;;;;;;0.00;0.00;;;;;;;;4986201;28;8849;-73
2022/06/02 16:36:46;;;;;;;;;0.00;0.00;;;;;;;;4984764;28;8877;-73
2022/06/02 16:39:31;;;;;;;;;1.00;1.00;;;;;;;;4984833;28;8993;-74
2022/06/02 16:42:18;;;;;;;;;2.00;2.00;;;;;;;;4983796;28;8871;-73
2022/06/02 16:45:21;;;;;;;;;0.60;0.60;;;;;;;;4982587;28;8892;-72
2022/06/02 16:48:26;;;;;;;;;1.00;1.00;;;;;;;;4982902;28;8871;-74
2022/06/02 16:51:38;;;;;;;;;0.60;0.60;;;;;;;;4987396;28;8880;-73
2022/06/02 16:54:41;;;;;;;;;0.20;0.20;;;;;;;;4937807;28;8893;-72
2022/06/02 16:57:44;;;;;;;;;0.40;0.40;;;;;;;;4935191;28;8912;-74
2022/06/02 17:00:24;;;;;;;;;0.20;0.20;;;;;;;;4949761;28;8905;-74